Time;durP1;ratioP1;P1;durP2;ratioP2;P2;SDS_P1;SDS_P2;PMS_P1;PMS_P2;Temp;Humidity;BMP_temperature;BMP_pressure;BME280_temperature;BME280_humidity;BME280_pressure;Samples;Min_cycle;Max_cycle;Signal;HPM_P1;HPM_P2
2020/12/18 00:01:33;;;;;;;5.13;2.85;;;17.70;55.40;;;;;;5079437;28;20146;-79
2020/12/18 00:03:59;;;;;;;3.70;2.67;;;17.60;55.50;;;;;;5060901;28;20185;-79
2020/12/18 00:06:32;;;;;;;5.25;2.70;;;17.60;55.50;;;;;;5079506;28;20228;-79
2020/12/18 00:08:59;;;;;;;7.95;2.97;;;17.60;55.60;;;;;;5078930;28;20633;-79
2020/12/18 00:11:26;;;;;;;3.88;2.90;;;17.60;55.40;;;;;;5079571;28;20165;-79
2020/12/18 00:13:52;;;;;;;4.20;2.60;;;17.60;55.30;;;;;;5078847;28;20161;-79
2020/12/18 00:16:19;;;;;;;5.35;2.90;;;17.60;55.40;;;;;;5078927;28;20620;-79
2020/12/18 00:18:46;;;;;;;5.10;2.75;;;17.60;55.60;;;;;;5061218;28;20239;-79
2020/12/18 00:21:17;;;;;;;3.72;2.53;;;17.60;55.90;;;;;;5078639;28;20150;-79
2020/12/18 00:23:43;;;;;;;5.40;3.25;;;17.60;55.90;;;;;;5060405;28;20165;-79
2020/12/18 00:26:10;;;;;;;5.20;2.83;;;17.60;55.70;;;;;;5060860;28;20181;-79
2020/12/18 00:28:37;;;;;;;6.95;3.03;;;17.60;55.60;;;;;;5078409;28;20211;-79
2020/12/18 00:31:03;;;;;;;5.53;3.05;;;17.60;55.70;;;;;;5078490;28;20588;-79
2020/12/18 00:33:30;;;;;;;4.88;2.85;;;17.60;55.70;;;;;;5060406;28;20221;-79
2020/12/18 00:35:56;;;;;;;4.10;2.65;;;17.60;55.60;;;;;;5078220;28;20156;-79
2020/12/18 00:38:22;;;;;;;4.57;2.95;;;17.60;55.50;;;;;;5078203;28;20244;-79
2020/12/18 00:40:49;;;;;;;4.85;3.00;;;17.60;55.40;;;;;;5060632;28;20605;-78
2020/12/18 00:43:15;;;;;;;5.40;2.78;;;17.60;55.60;;;;;;5078240;28;20244;-79
2020/12/18 00:45:43;;;;;;;4.03;2.92;;;17.60;55.50;;;;;;5078225;28;20157;-79
2020/12/18 00:48:10;;;;;;;5.53;2.90;;;17.60;55.70;;;;;;5078479;28;20211;-79
2020/12/18 00:50:37;;;;;;;6.10;3.10;;;17.60;55.50;;;;;;5060284;28;20154;-79
2020/12/18 00:53:04;;;;;;;4.57;2.78;;;17.60;55.60;;;;;;5078494;28;20161;-79
2020/12/18 00:55:31;;;;;;;4.55;2.70;;;17.60;55.70;;;;;;5059868;28;20168;-79
2020/12/18 00:57:57;;;;;;;5.15;3.40;;;17.60;55.80;;;;;;5078130;28;20188;-79
2020/12/18 01:00:24;;;;;;;6.20;2.90;;;17.50;55.70;;;;;;5077876;28;20154;-78
2020/12/18 01:02:50;;;;;;;5.85;3.08;;;17.50;55.80;;;;;;5078033;28;20150;-79
2020/12/18 01:05:24;;;;;;;5.18;2.75;;;17.50;55.80;;;;;;5078070;28;20156;-79
2020/12/18 01:07:50;;;;;;;6.13;2.65;;;17.50;55.80;;;;;;5043323;28;20180;-79
2020/12/18 01:10:17;;;;;;;4.68;2.88;;;17.50;55.90;;;;;;5059744;28;20616;-79
2020/12/18 01:12:43;;;;;;;4.93;2.70;;;17.50;55.90;;;;;;5077901;28;20303;-79
2020/12/18 01:15:09;;;;;;;5.93;2.75;;;17.50;55.70;;;;;;5043335;28;20170;-79
2020/12/18 01:17:35;;;;;;;4.47;2.78;;;17.50;55.90;;;;;;5077180;28;20189;-79
2020/12/18 01:20:02;;;;;;;6.75;3.28;;;17.50;55.80;;;;;;5077616;28;20154;-79
2020/12/18 01:22:28;;;;;;;5.22;2.92;;;17.60;55.70;;;;;;5059666;28;20215;-78
2020/12/18 01:25:03;;;;;;;5.93;2.83;;;17.60;55.70;;;;;;5077522;28;20165;-79
2020/12/18 01:27:30;;;;;;;3.95;2.60;;;17.50;55.90;;;;;;5077855;28;20156;-79
2020/12/18 01:29:56;;;;;;;5.25;3.15;;;17.50;55.80;;;;;;5076895;28;20167;-79
2020/12/18 01:32:22;;;;;;;5.63;2.63;;;17.50;55.70;;;;;;5077199;28;20165;-79
2020/12/18 01:34:49;;;;;;;6.22;2.80;;;17.50;55.80;;;;;;5077514;28;20267;-79
2020/12/18 01:37:14;;;;;;;5.28;2.78;;;17.60;55.80;;;;;;5077276;28;20187;-78
2020/12/18 01:39:41;;;;;;;5.47;3.00;;;17.60;55.60;;;;;;5059802;28;20146;-79
2020/12/18 01:42:07;;;;;;;4.05;2.65;;;17.60;55.70;;;;;;5059145;28;20643;-79
2020/12/18 01:44:33;;;;;;;4.45;2.78;;;17.60;55.60;;;;;;5059283;28;20603;-79
2020/12/18 01:47:00;;;;;;;7.38;3.13;;;17.60;55.60;;;;;;5058809;28;20162;-79
2020/12/18 01:49:26;;;;;;;4.03;2.70;;;17.60;55.70;;;;;;5041920;28;20632;-78
2020/12/18 01:51:53;;;;;;;4.70;2.75;;;17.60;55.80;;;;;;5076945;28;20252;-79
2020/12/18 01:54:19;;;;;;;6.22;2.90;;;17.60;55.90;;;;;;5058914;28;20149;-79
2020/12/18 01:56:46;;;;;;;5.40;3.35;;;17.60;55.80;;;;;;5076974;28;20158;-79
2020/12/18 01:59:13;;;;;;;4.30;3.17;;;17.60;55.50;;;;;;5058968;28;20289;-79
2020/12/18 02:01:40;;;;;;;3.50;2.80;;;17.60;55.50;;;;;;5058481;28;20150;-79
2020/12/18 02:04:06;;;;;;;3.88;2.80;;;17.60;55.50;;;;;;5076786;28;20207;-79
2020/12/18 02:06:33;;;;;;;5.38;3.00;;;17.60;55.50;;;;;;5058223;28;20664;-79
2020/12/18 02:08:59;;;;;;;4.15;2.50;;;17.60;55.70;;;;;;5058875;28;20635;-79
2020/12/18 02:11:25;;;;;;;4.65;2.92;;;17.60;55.60;;;;;;5058447;28;20154;-79
2020/12/18 02:13:52;;;;;;;4.50;2.58;;;17.60;55.80;;;;;;5058528;28;20168;-79
2020/12/18 02:16:19;;;;;;;3.38;2.58;;;17.50;55.80;;;;;;5058442;28;20154;-79
2020/12/18 02:18:47;;;;;;;4.35;2.63;;;17.50;55.80;;;;;;5076690;28;20241;-79
2020/12/18 02:21:13;;;;;;;5.35;2.97;;;17.50;55.80;;;;;;5058347;28;20215;-79
2020/12/18 02:23:40;;;;;;;3.90;2.55;;;17.50;55.70;;;;;;5058594;28;20157;-79
2020/12/18 02:26:07;;;;;;;3.80;2.70;;;17.50;55.90;;;;;;5076608;28;20146;-79
2020/12/18 02:28:36;;;;;;;4.63;2.80;;;17.50;55.90;;;;;;5076369;28;20179;-79
2020/12/18 02:31:03;;;;;;;3.80;2.60;;;17.50;56.00;;;;;;5076221;28;20184;-79
2020/12/18 02:33:30;;;;;;;4.90;2.80;;;17.50;55.90;;;;;;5076460;28;20258;-79
2020/12/18 02:35:57;;;;;;;3.58;2.53;;;17.50;55.80;;;;;;5058390;28;20157;-79
2020/12/18 02:38:23;;;;;;;5.00;2.72;;;17.50;55.80;;;;;;5054271;28;20297;-79
2020/12/18 02:40:51;;;;;;;4.22;2.53;;;17.50;55.80;;;;;;5056217;28;20644;-79
2020/12/18 02:43:18;;;;;;;4.78;2.72;;;17.50;56.00;;;;;;5054642;28;20636;-79
2020/12/18 02:45:45;;;;;;;5.28;2.90;;;17.50;55.90;;;;;;5056097;28;20162;-79
2020/12/18 02:48:11;;;;;;;7.45;2.70;;;17.50;55.90;;;;;;5054635;28;20233;-79
2020/12/18 02:50:37;;;;;;;6.07;2.67;;;17.50;55.80;;;;;;5055858;28;20158;-79
2020/12/18 02:53:14;;;;;;;6.10;2.65;;;17.50;56.00;;;;;;5056005;28;20154;-79
2020/12/18 02:55:40;;;;;;;4.53;2.40;;;17.50;55.80;;;;;;5054713;28;20161;-80
2020/12/18 02:58:07;;;;;;;5.68;2.70;;;17.50;55.80;;;;;;5054308;28;20544;-79
2020/12/18 03:00:34;;;;;;;4.97;2.92;;;17.50;55.90;;;;;;5056286;28;20150;-79
2020/12/18 03:03:02;;;;;;;5.82;2.72;;;17.50;55.90;;;;;;5054722;28;20162;-79
2020/12/18 03:05:28;;;;;;;6.90;2.70;;;17.50;56.00;;;;;;5054106;28;20154;-79
2020/12/18 03:07:54;;;;;;;4.30;3.00;;;17.50;56.10;;;;;;5055663;28;20613;-79
2020/12/18 03:10:20;;;;;;;3.70;2.50;;;17.50;56.10;;;;;;5054280;28;20246;-79
2020/12/18 03:12:47;;;;;;;3.75;2.42;;;17.50;56.00;;;;;;5054008;28;20163;-79
2020/12/18 03:15:21;;;;;;;3.25;2.55;;;17.50;55.80;;;;;;5055335;28;20237;-79
2020/12/18 03:17:48;;;;;;;6.22;3.03;;;17.50;55.80;;;;;;5054292;28;20651;-79
2020/12/18 03:20:14;;;;;;;4.50;2.58;;;17.50;56.10;;;;;;5054265;28;20525;-79
2020/12/18 03:22:41;;;;;;;4.20;2.80;;;17.50;55.80;;;;;;5055794;28;20154;-79
2020/12/18 03:25:07;;;;;;;6.20;2.80;;;17.50;55.80;;;;;;5055816;28;20162;-79
2020/12/18 03:27:34;;;;;;;3.70;2.70;;;17.50;55.90;;;;;;5054265;28;20540;-79
2020/12/18 03:30:00;;;;;;;4.00;2.47;;;17.50;55.80;;;;;;5055660;28;20605;-79
2020/12/18 03:32:28;;;;;;;5.03;2.97;;;17.50;55.80;;;;;;5054092;28;20158;-79
2020/12/18 03:34:55;;;;;;;5.88;2.63;;;17.50;55.90;;;;;;5055664;28;20154;-79
2020/12/18 03:37:20;;;;;;;3.13;2.50;;;17.50;55.90;;;;;;5058402;28;20232;-79
2020/12/18 03:39:46;;;;;;;5.35;2.67;;;17.50;55.80;;;;;;5057297;28;20536;-78
2020/12/18 03:42:13;;;;;;;4.72;2.45;;;17.50;56.00;;;;;;5057031;28;20162;-79
2020/12/18 03:44:40;;;;;;;2.95;2.47;;;17.50;56.00;;;;;;5057326;28;20177;-78
2020/12/18 03:47:06;;;;;;;3.78;2.70;;;17.50;56.00;;;;;;5075659;28;20160;-79
2020/12/18 03:49:33;;;;;;;4.95;3.13;;;17.50;56.20;;;;;;5074974;28;20181;-79
2020/12/18 03:51:59;;;;;;;4.03;2.70;;;17.50;56.20;;;;;;5075369;28;20160;-79
2020/12/18 03:54:26;;;;;;;3.65;2.53;;;17.50;56.10;;;;;;5061176;28;20248;-78
2020/12/18 03:56:53;;;;;;;4.72;2.65;;;17.50;56.20;;;;;;5078929;28;20154;-79
2020/12/18 03:59:20;;;;;;;3.75;2.63;;;17.50;56.10;;;;;;5078721;28;20276;-79
2020/12/18 04:01:46;;;;;;;6.47;2.70;;;17.50;55.90;;;;;;5078900;28;20164;-79
2020/12/18 04:04:13;;;;;;;4.53;2.58;;;17.50;55.90;;;;;;5060931;28;20162;-79
2020/12/18 04:06:40;;;;;;;3.95;2.55;;;17.50;56.00;;;;;;5078713;28;20207;-78
2020/12/18 04:09:06;;;;;;;4.53;2.30;;;17.50;56.10;;;;;;5078935;28;20158;-79
2020/12/18 04:11:33;;;;;;;2.92;2.38;;;17.50;56.10;;;;;;5078477;28;20166;-78
2020/12/18 04:13:59;;;;;;;3.80;2.78;;;17.50;56.00;;;;;;5060886;28;20211;-79
2020/12/18 04:16:26;;;;;;;4.43;2.67;;;17.50;56.20;;;;;;5078562;28;20157;-79
2020/12/18 04:18:53;;;;;;;4.07;2.55;;;17.50;56.10;;;;;;5059799;28;20189;-79
2020/12/18 04:21:19;;;;;;;3.03;2.65;;;17.50;56.10;;;;;;5078644;28;20158;-79
2020/12/18 04:23:45;;;;;;;4.78;2.83;;;17.50;56.10;;;;;;5061134;28;20162;-79
2020/12/18 04:26:12;;;;;;;3.30;2.50;;;17.50;56.10;;;;;;5079122;28;20149;-79
2020/12/18 04:28:38;;;;;;;3.88;2.50;;;17.50;55.90;;;;;;5079062;28;20249;-79
2020/12/18 04:31:04;;;;;;;4.13;2.40;;;17.50;55.90;;;;;;5079556;28;20676;-79
2020/12/18 04:33:31;;;;;;;4.95;2.42;;;17.50;55.90;;;;;;5079498;28;20165;-79
2020/12/18 04:35:58;;;;;;;4.53;2.40;;;17.50;56.00;;;;;;5061183;28;20173;-79
2020/12/18 04:38:23;;;;;;;3.17;2.47;;;17.50;56.10;;;;;;5057535;28;20229;-78
2020/12/18 04:40:50;;;;;;;3.42;2.67;;;17.50;56.20;;;;;;5059084;28;20172;-79
2020/12/18 04:43:17;;;;;;;3.67;2.50;;;17.50;56.20;;;;;;5057612;28;20154;-78
2020/12/18 04:45:44;;;;;;;3.17;2.15;;;17.40;56.20;;;;;;5057952;28;20150;-79
2020/12/18 04:48:10;;;;;;;4.07;2.42;;;17.40;56.10;;;;;;5058002;28;20163;-79
2020/12/18 04:50:37;;;;;;;3.45;2.70;;;17.40;56.10;;;;;;5058770;28;20173;-79
2020/12/18 04:53:04;;;;;;;3.70;2.70;;;17.40;56.20;;;;;;5058284;28;20174;-79
2020/12/18 04:55:30;;;;;;;4.03;2.40;;;17.40;56.10;;;;;;5058516;28;20161;-79
2020/12/18 04:57:57;;;;;;;3.30;2.45;;;17.50;55.70;;;;;;5058773;28;20209;-79
2020/12/18 05:00:24;;;;;;;2.75;2.33;;;17.60;55.60;;;;;;5058619;28;20157;-78
2020/12/18 05:02:50;;;;;;;2.90;2.40;;;17.60;55.60;;;;;;5060061;28;20166;-79
2020/12/18 05:05:17;;;;;;;4.82;2.53;;;17.60;55.40;;;;;;5056832;28;20166;-79
2020/12/18 05:07:51;;;;;;;2.95;2.45;;;17.60;55.40;;;;;;5059401;28;20640;-79
2020/12/18 05:10:18;;;;;;;3.30;2.40;;;17.60;55.50;;;;;;5059438;28;20162;-79
2020/12/18 05:12:44;;;;;;;3.85;2.28;;;17.60;55.50;;;;;;5058672;28;20733;-79
2020/12/18 05:15:11;;;;;;;2.95;2.30;;;17.60;55.80;;;;;;5057666;28;20248;-78
2020/12/18 05:17:37;;;;;;;2.63;2.10;;;17.60;55.50;;;;;;5059072;28;20185;-79
2020/12/18 05:20:04;;;;;;;3.10;2.30;;;17.60;55.80;;;;;;5058279;28;20552;-79
2020/12/18 05:22:29;;;;;;;2.40;2.13;;;17.50;55.70;;;;;;5057396;28;20150;-78
2020/12/18 05:24:56;;;;;;;4.13;2.30;;;17.60;55.40;;;;;;5059350;28;20214;-79
2020/12/18 05:27:22;;;;;;;2.65;2.03;;;17.60;55.30;;;;;;5059446;28;20576;-78
2020/12/18 05:29:49;;;;;;;2.72;2.10;;;17.60;55.50;;;;;;5041170;28;20225;-79
2020/12/18 05:32:16;;;;;;;2.88;2.20;;;17.50;55.50;;;;;;5059076;28;20189;-78
2020/12/18 05:34:44;;;;;;;3.20;2.10;;;17.60;55.40;;;;;;5057799;28;20284;-78
2020/12/18 05:37:11;;;;;;;2.50;1.83;;;17.60;55.20;;;;;;5059242;28;20150;-78
2020/12/18 05:39:39;;;;;;;2.95;2.20;;;17.70;55.20;;;;;;5078960;28;20596;-78
2020/12/18 05:42:06;;;;;;;2.42;1.90;;;17.70;55.00;;;;;;5078816;28;20512;-79
2020/12/18 05:44:40;;;;;;;3.08;2.33;;;17.70;54.80;;;;;;5061065;28;20161;-79
2020/12/18 05:47:07;;;;;;;2.45;1.92;;;17.60;55.30;;;;;;5061321;28;20157;-79
2020/12/18 05:49:35;;;;;;;2.45;1.88;;;17.60;55.00;;;;;;5079039;28;20156;-79
2020/12/18 05:52:02;;;;;;;3.05;2.10;;;17.70;55.00;;;;;;5079219;28;20164;-79
2020/12/18 05:54:50;;;;;;;3.15;2.03;;;17.60;55.10;;;;;;5078776;28;20596;-78
2020/12/18 05:57:16;;;;;;;2.97;2.10;;;17.70;55.00;;;;;;5059068;28;20162;-79
2020/12/18 05:59:43;;;;;;;2.65;2.00;;;17.70;55.00;;;;;;5060411;28;20158;-79
2020/12/18 06:02:16;;;;;;;2.75;2.00;;;17.70;55.00;;;;;;5060442;28;20157;-78
2020/12/18 06:04:43;;;;;;;2.40;1.90;;;17.60;55.30;;;;;;5060476;28;20158;-79
2020/12/18 06:07:18;;;;;;;3.05;2.05;;;17.60;55.10;;;;;;5060295;28;20161;-78
2020/12/18 06:09:44;;;;;;;3.20;2.15;;;17.60;55.00;;;;;;5060738;28;20591;-79
2020/12/18 06:12:12;;;;;;;2.50;2.10;;;17.60;55.20;;;;;;5060786;28;20157;-79
2020/12/18 06:14:40;;;;;;;2.10;1.85;;;17.60;55.10;;;;;;5078802;28;20658;-78
2020/12/18 06:17:11;;;;;;;2.20;1.90;;;17.60;55.20;;;;;;5060929;28;20157;-78
2020/12/18 06:19:38;;;;;;;2.78;1.95;;;17.60;54.80;;;;;;5060516;28;20170;-79
2020/12/18 06:22:08;;;;;;;4.00;1.95;;;17.60;55.10;;;;;;5078454;28;20635;-79
2020/12/18 06:24:44;;;;;;;2.78;2.00;;;17.60;55.20;;;;;;5060584;28;20157;-79
2020/12/18 06:27:15;;;;;;;2.78;2.08;;;17.60;55.10;;;;;;5078755;28;20146;-79
2020/12/18 06:29:41;;;;;;;2.40;1.88;;;17.60;54.90;;;;;;5060924;28;20156;-78
2020/12/18 06:32:26;;;;;;;2.72;2.00;;;17.70;54.80;;;;;;5078735;28;20192;-79
2020/12/18 06:34:53;;;;;;;2.47;1.90;;;17.70;54.80;;;;;;5078015;28;20187;-79
2020/12/18 06:37:36;;;;;;;3.15;1.83;;;17.70;54.60;;;;;;5078027;28;20209;-79
2020/12/18 06:40:30;;;;;;;2.10;1.75;;;17.70;54.90;;;;;;5079642;28;20164;-79
2020/12/18 06:43:27;;;;;;;2.42;1.73;;;17.70;54.40;;;;;;5080315;28;20165;-80
2020/12/18 06:46:28;;;;;;;2.38;1.65;;;17.70;54.20;;;;;;5063015;28;20177;-80
2020/12/18 06:49:14;;;;;;;2.55;2.00;;;17.70;54.70;;;;;;5078753;28;20168;-80
2020/12/18 06:51:39;;;;;;;2.50;1.77;;;17.70;54.50;;;;;;5078455;28;20193;-80
2020/12/18 06:54:10;;;;;;;2.30;1.88;;;17.70;54.60;;;;;;5043065;28;20184;-79
2020/12/18 06:56:52;;;;;;;2.78;1.80;;;17.70;54.40;;;;;;5060630;28;20283;-80
2020/12/18 06:59:19;;;;;;;2.75;1.95;;;17.60;54.90;;;;;;5078220;28;20184;-81
2020/12/18 07:01:54;;;;;;;2.47;2.05;;;17.60;54.90;;;;;;5078367;28;20161;-79
2020/12/18 07:04:21;;;;;;;2.63;1.70;;;17.60;54.80;;;;;;5078092;28;20164;-80
2020/12/18 07:06:48;;;;;;;1.90;1.70;;;17.60;54.90;;;;;;5060444;28;20161;-81
2020/12/18 07:09:17;;;;;;;2.58;1.98;;;17.60;54.60;;;;;;5060284;28;20211;-79
2020/12/18 07:11:44;;;;;;;2.15;1.80;;;17.60;54.80;;;;;;5078114;28;20634;-80
2020/12/18 07:14:15;;;;;;;2.45;1.60;;;17.60;54.80;;;;;;5060063;28;20168;-79
2020/12/18 07:16:51;;;;;;;2.10;1.63;;;17.70;54.40;;;;;;5077997;28;20153;-80
2020/12/18 07:19:17;;;;;;;2.42;1.70;;;17.70;54.50;;;;;;5077993;28;20185;-80
2020/12/18 07:21:44;;;;;;;2.33;2.00;;;17.60;54.90;;;;;;5078197;28;20299;-79
2020/12/18 07:24:10;;;;;;;2.05;1.50;;;17.60;55.00;;;;;;5077858;28;20157;-79
2020/12/18 07:26:37;;;;;;;1.98;1.48;;;17.60;54.80;;;;;;5078221;28;20201;-79
2020/12/18 07:29:03;;;;;;;1.85;1.48;;;17.60;54.70;;;;;;5082178;28;20157;-79
2020/12/18 07:31:31;;;;;;;3.25;1.60;;;17.70;54.40;;;;;;5064391;28;20244;-79
2020/12/18 07:33:59;;;;;;;1.90;1.70;;;17.70;54.50;;;;;;5060032;28;20196;-78
2020/12/18 07:36:26;;;;;;;2.10;1.60;;;17.60;54.50;;;;;;5059159;28;20153;-79
2020/12/18 07:38:57;;;;;;;2.05;1.60;;;17.70;54.30;;;;;;5055312;28;20261;-79
2020/12/18 07:41:24;;;;;;;2.92;1.70;;;17.70;54.40;;;;;;5056145;28;20241;-79
2020/12/18 07:43:51;;;;;;;1.77;1.38;;;17.70;54.40;;;;;;5055743;28;20645;-78
2020/12/18 07:46:18;;;;;;;1.90;1.55;;;17.70;54.40;;;;;;5056994;28;20506;-79
2020/12/18 07:48:46;;;;;;;1.50;1.40;;;17.80;54.10;;;;;;5057115;28;20150;-79
2020/12/18 07:51:21;;;;;;;2.00;1.60;;;17.80;54.10;;;;;;5056846;28;20154;-79
2020/12/18 07:53:50;;;;;;;2.00;1.70;;;17.80;54.00;;;;;;5055858;28;20583;-79
2020/12/18 07:56:21;;;;;;;2.05;1.50;;;17.80;54.10;;;;;;5055669;28;20169;-79
2020/12/18 07:58:47;;;;;;;2.47;1.50;;;17.70;54.10;;;;;;5056897;28;20237;-79
2020/12/18 08:01:15;;;;;;;2.17;1.48;;;17.70;54.60;;;;;;5056618;28;20238;-80
2020/12/18 08:03:44;;;;;;;1.65;1.50;;;17.70;54.20;;;;;;5055488;28;20332;-79
2020/12/18 08:06:17;;;;;;;2.58;1.50;;;17.70;54.00;;;;;;5057493;28;20158;-78
2020/12/18 08:08:53;;;;;;;1.65;1.48;;;17.80;54.00;;;;;;5057979;28;20162;-78
2020/12/18 08:11:19;;;;;;;2.00;1.50;;;17.70;54.30;;;;;;5057728;28;20239;-78
2020/12/18 08:13:44;;;;;;;2.22;1.40;;;17.80;54.10;;;;;;5056771;28;20162;-78
2020/12/18 08:16:12;;;;;;;1.67;1.42;;;17.70;54.20;;;;;;5039910;28;20166;-78
2020/12/18 08:18:38;;;;;;;2.22;1.70;;;17.70;54.00;;;;;;5056009;28;20186;-78
2020/12/18 08:21:05;;;;;;;3.47;1.65;;;17.70;53.90;;;;;;5057473;28;20158;-78
2020/12/18 08:23:35;;;;;;;1.83;1.20;;;17.80;54.00;;;;;;5056315;28;20162;-78
2020/12/18 08:26:02;;;;;;;2.97;1.70;;;17.70;54.00;;;;;;5056787;28;20197;-78
2020/12/18 08:28:29;;;;;;;2.22;1.42;;;17.80;54.10;;;;;;5055944;28;20644;-78
2020/12/18 08:30:55;;;;;;;1.85;1.45;;;17.70;53.70;;;;;;5056327;28;20178;-78
2020/12/18 08:33:21;;;;;;;1.55;1.10;;;17.80;53.80;;;;;;5055645;28;20189;-78
2020/12/18 08:35:48;;;;;;;1.80;1.40;;;17.80;53.60;;;;;;5056012;28;20244;-78
2020/12/18 08:38:13;;;;;;;2.03;1.60;;;17.70;54.10;;;;;;5055728;28;20236;-78
2020/12/18 08:40:44;;;;;;;1.38;1.27;;;17.70;54.00;;;;;;5054603;28;20249;-79
2020/12/18 08:43:13;;;;;;;1.50;1.40;;;17.80;53.60;;;;;;5054146;28;20543;-79
2020/12/18 08:45:45;;;;;;;1.42;1.20;;;17.70;54.10;;;;;;5053939;28;20177;-78
2020/12/18 08:48:11;;;;;;;1.75;1.45;;;17.70;54.30;;;;;;5053556;28;20241;-79
2020/12/18 08:50:38;;;;;;;2.03;1.35;;;17.70;54.00;;;;;;5054186;28;20186;-79
2020/12/18 08:53:12;;;;;;;1.55;1.30;;;17.80;53.30;;;;;;5055305;28;20620;-78
2020/12/18 08:55:37;;;;;;;2.70;1.25;;;17.80;53.50;;;;;;5053626;28;20544;-78
2020/12/18 08:58:10;;;;;;;1.70;1.40;;;17.90;53.30;;;;;;5054837;28;20186;-79
2020/12/18 09:00:39;;;;;;;1.88;1.10;;;17.80;53.80;;;;;;5055172;28;20203;-78
2020/12/18 09:03:05;;;;;;;1.55;1.20;;;17.80;53.60;;;;;;5053486;28;20151;-78
2020/12/18 09:05:32;;;;;;;1.20;1.10;;;17.80;53.50;;;;;;5036866;28;20188;-78
2020/12/18 09:08:02;;;;;;;2.35;1.50;;;17.90;53.30;;;;;;5020558;28;20220;-78
2020/12/18 09:10:29;;;;;;;4.10;1.67;;;17.90;53.70;;;;;;5053876;28;20657;-78
2020/12/18 09:12:54;;;;;;;1.45;1.23;;;17.80;54.00;;;;;;5054730;28;20154;-78
2020/12/18 09:15:29;;;;;;;1.67;1.15;;;17.70;54.20;;;;;;5054694;28;20181;-78
2020/12/18 09:18:00;;;;;;;1.98;1.25;;;17.80;54.40;;;;;;5053427;28;20287;-78
2020/12/18 09:20:27;;;;;;;1.20;1.10;;;17.80;54.30;;;;;;5053391;28;20161;-78
2020/12/18 09:22:55;;;;;;;2.47;1.38;;;17.80;54.40;;;;;;5053597;28;20158;-77
2020/12/18 09:25:22;;;;;;;4.40;1.30;;;17.80;54.20;;;;;;5054411;28;20676;-76
2020/12/18 09:28:17;;;;;;;1.83;1.30;;;17.90;54.10;;;;;;5054605;28;20162;-79
2020/12/18 09:30:52;;;;;;;1.45;1.10;;;17.90;54.10;;;;;;5054843;28;20163;-77
2020/12/18 09:33:23;;;;;;;1.60;1.30;;;17.90;54.00;;;;;;5053480;28;20162;-78
2020/12/18 09:36:00;;;;;;;1.38;1.27;;;17.90;54.00;;;;;;5054145;28;20628;-76
2020/12/18 09:38:46;;;;;;;1.65;1.00;;;17.80;54.00;;;;;;5066992;28;20220;-78
2020/12/18 09:41:18;;;;;;;1.48;1.00;;;17.90;53.80;;;;;;5063927;28;20274;-78
2020/12/18 09:43:44;;;;;;;1.77;1.08;;;17.90;53.80;;;;;;5082856;28;20165;-78
2020/12/18 09:46:15;;;;;;;1.40;1.15;;;17.90;53.70;;;;;;5081521;28;20244;-78
2020/12/18 09:48:43;;;;;;;2.72;1.17;;;17.90;53.60;;;;;;5082268;28;20215;-78
2020/12/18 09:51:10;;;;;;;1.73;1.00;;;17.90;53.80;;;;;;5082726;28;20185;-78
2020/12/18 09:53:36;;;;;;;1.58;1.10;;;17.90;53.90;;;;;;5082201;28;20678;-78
2020/12/18 09:56:03;;;;;;;1.25;1.15;;;17.80;53.60;;;;;;5082575;28;20161;-78
2020/12/18 09:58:29;;;;;;;1.63;1.10;;;17.90;53.70;;;;;;5081985;28;20189;-79
2020/12/18 10:00:56;;;;;;;1.80;1.20;;;17.90;53.60;;;;;;5063371;28;20185;-78
2020/12/18 10:03:22;;;;;;;2.10;1.10;;;17.90;53.60;;;;;;5062307;28;20154;-78
2020/12/18 10:05:48;;;;;;;1.42;1.00;;;17.90;53.70;;;;;;5080428;28;20181;-78
2020/12/18 10:08:15;;;;;;;1.17;1.00;;;18.00;53.30;;;;;;5061205;28;20188;-77
2020/12/18 10:10:41;;;;;;;1.17;1.05;;;17.90;53.40;;;;;;5062131;28;20583;-78
2020/12/18 10:13:08;;;;;;;1.35;1.25;;;18.00;53.40;;;;;;5079645;28;20233;-78
2020/12/18 10:15:42;;;;;;;2.08;1.23;;;18.10;52.90;;;;;;5061886;28;20639;-78
2020/12/18 10:18:08;;;;;;;2.20;1.48;;;18.00;53.10;;;;;;5080281;28;20662;-78
2020/12/18 10:20:43;;;;;;;1.40;1.25;;;18.00;53.40;;;;;;5078747;28;20161;-78
2020/12/18 10:23:09;;;;;;;1.73;1.08;;;18.00;53.30;;;;;;5078354;28;20152;-78
2020/12/18 10:25:36;;;;;;;1.10;1.00;;;18.00;53.20;;;;;;5079068;28;20568;-79
2020/12/18 10:28:03;;;;;;;1.13;0.98;;;18.00;53.10;;;;;;5061257;28;20169;-78
2020/12/18 10:30:29;;;;;;;1.00;0.90;;;18.00;53.20;;;;;;5078780;28;20154;-78
2020/12/18 10:32:55;;;;;;;1.23;0.98;;;18.00;53.10;;;;;;5078124;28;20158;-79
2020/12/18 10:35:22;;;;;;;1.88;0.85;;;18.00;53.00;;;;;;5078230;28;20154;-79
2020/12/18 10:37:50;;;;;;;1.08;0.80;;;18.00;52.90;;;;;;5077148;28;20775;-78
2020/12/18 10:40:15;;;;;;;1.95;0.90;;;18.00;52.90;;;;;;5059701;28;20269;-79
2020/12/18 10:42:42;;;;;;;1.38;0.90;;;18.00;52.90;;;;;;5077857;28;20247;-78
2020/12/18 10:45:09;;;;;;;2.03;0.90;;;18.00;52.90;;;;;;5077418;28;20160;-78
2020/12/18 10:47:36;;;;;;;1.20;0.90;;;18.10;53.10;;;;;;5077627;28;20161;-78
2020/12/18 10:50:02;;;;;;;2.38;1.10;;;18.00;53.40;;;;;;5078642;28;20158;-78
2020/12/18 10:52:29;;;;;;;1.40;0.90;;;18.00;53.40;;;;;;5078632;28;20161;-78
2020/12/18 10:54:54;;;;;;;1.58;1.00;;;18.00;53.10;;;;;;5062040;28;20173;-78
2020/12/18 10:57:21;;;;;;;1.48;1.00;;;18.00;53.90;;;;;;5078463;28;20157;-78
2020/12/18 10:59:55;;;;;;;1.52;1.20;;;18.00;53.40;;;;;;5078338;28;20161;-78
2020/12/18 11:02:21;;;;;;;1.58;1.17;;;18.00;53.50;;;;;;5055510;28;20157;-78
2020/12/18 11:04:47;;;;;;;2.25;1.02;;;18.00;53.20;;;;;;5059517;28;20154;-78
2020/12/18 11:07:14;;;;;;;1.58;0.70;;;18.00;53.00;;;;;;5057631;28;20162;-77
2020/12/18 11:09:40;;;;;;;1.67;0.88;;;18.10;52.40;;;;;;5057936;28;20166;-78
2020/12/18 11:12:07;;;;;;;1.17;0.98;;;18.10;52.80;;;;;;5058416;28;20162;-78
2020/12/18 11:14:33;;;;;;;1.13;0.90;;;18.10;52.90;;;;;;5058414;28;20532;-78
2020/12/18 11:16:59;;;;;;;1.02;0.80;;;18.10;52.50;;;;;;5056909;28;20228;-78
2020/12/18 11:19:26;;;;;;;1.15;0.82;;;18.10;52.40;;;;;;5056725;28;20186;-78
2020/12/18 11:21:52;;;;;;;0.80;0.75;;;18.10;52.60;;;;;;5057455;28;20162;-79
2020/12/18 11:24:19;;;;;;;1.55;0.80;;;18.10;52.70;;;;;;5058629;28;20154;-78
2020/12/18 11:26:51;;;;;;;1.23;0.90;;;18.20;52.30;;;;;;5057291;28;20190;-78
2020/12/18 11:29:17;;;;;;;1.17;0.80;;;18.30;52.10;;;;;;5058902;28;20233;-78
2020/12/18 11:31:44;;;;;;;1.52;1.00;;;18.20;52.20;;;;;;5058593;28;20560;-77
2020/12/18 11:34:10;;;;;;;1.00;0.82;;;18.10;52.80;;;;;;5040035;28;20174;-77
2020/12/18 11:36:37;;;;;;;1.10;0.80;;;18.10;52.30;;;;;;5058292;28;20154;-78
2020/12/18 11:39:04;;;;;;;1.40;0.90;;;18.10;52.70;;;;;;5077223;28;20221;-78
2020/12/18 11:41:30;;;;;;;1.05;0.82;;;18.10;52.70;;;;;;5080520;28;20161;-78
2020/12/18 11:43:57;;;;;;;2.65;0.80;;;18.10;52.50;;;;;;5081474;28;20185;-78
2020/12/18 11:46:23;;;;;;;1.00;0.90;;;18.10;52.60;;;;;;5064749;28;20248;-78
2020/12/18 11:48:50;;;;;;;1.30;0.80;;;18.10;51.90;;;;;;5082219;28;20189;-79
2020/12/18 11:51:16;;;;;;;1.73;0.88;;;18.20;51.40;;;;;;5082835;28;20161;-78
2020/12/18 11:53:43;;;;;;;1.48;0.77;;;18.20;51.60;;;;;;5083066;28;20213;-78
2020/12/18 11:56:09;;;;;;;0.80;0.80;;;18.20;51.50;;;;;;5066372;28;20237;-79
2020/12/18 11:58:35;;;;;;;1.38;0.93;;;18.30;51.50;;;;;;5084428;28;20255;-79
2020/12/18 12:01:03;;;;;;;0.77;0.75;;;18.30;51.20;;;;;;5064909;28;20190;-78
2020/12/18 12:03:31;;;;;;;1.95;0.80;;;18.30;51.50;;;;;;5063813;28;20517;-78
2020/12/18 12:06:00;;;;;;;1.38;1.00;;;18.30;51.20;;;;;;5064156;28;20142;-78
2020/12/18 12:08:26;;;;;;;1.00;0.80;;;18.30;51.10;;;;;;5081303;28;20165;-78
2020/12/18 12:10:53;;;;;;;0.63;0.63;;;18.30;51.20;;;;;;5081015;28;20198;-78
2020/12/18 12:13:19;;;;;;;0.90;0.80;;;18.30;51.00;;;;;;5081141;28;20157;-78
2020/12/18 12:15:46;;;;;;;0.95;0.80;;;18.30;50.90;;;;;;5080562;28;20166;-78
2020/12/18 12:18:12;;;;;;;0.80;0.70;;;18.30;51.40;;;;;;5080960;28;20185;-78
2020/12/18 12:20:39;;;;;;;1.02;0.93;;;18.30;51.40;;;;;;5080419;28;20697;-78
2020/12/18 12:23:05;;;;;;;0.98;0.70;;;18.20;51.60;;;;;;5063391;28;20166;-78
2020/12/18 12:25:32;;;;;;;1.02;0.88;;;18.20;51.60;;;;;;5064266;28;20165;-78
2020/12/18 12:27:59;;;;;;;1.00;0.90;;;18.10;51.80;;;;;;5065005;28;20158;-77
2020/12/18 12:30:26;;;;;;;0.93;0.80;;;18.10;51.60;;;;;;5061902;28;20180;-78
2020/12/18 12:32:54;;;;;;;1.00;0.82;;;18.20;51.30;;;;;;5080807;28;20177;-78
2020/12/18 12:35:22;;;;;;;0.90;0.80;;;18.10;51.90;;;;;;5063544;28;20172;-78
2020/12/18 12:37:48;;;;;;;1.30;0.95;;;18.10;52.10;;;;;;5081250;28;20608;-78
2020/12/18 12:40:14;;;;;;;1.13;1.00;;;18.20;51.30;;;;;;5058995;28;20646;-78
2020/12/18 12:42:40;;;;;;;1.00;0.90;;;18.20;51.50;;;;;;5057779;28;20158;-78
2020/12/18 12:45:07;;;;;;;0.70;0.60;;;18.10;51.40;;;;;;5075293;28;20164;-77
2020/12/18 12:47:33;;;;;;;1.17;0.75;;;18.10;51.30;;;;;;5078612;28;20616;-78
2020/12/18 12:50:00;;;;;;;0.80;0.73;;;18.20;50.80;;;;;;5041220;28;20169;-78
2020/12/18 12:52:27;;;;;;;0.80;0.80;;;18.10;51.40;;;;;;5057467;28;20179;-78